Time;durP1;ratioP1;P1;durP2;ratioP2;P2;SDS_P1;SDS_P2;PMS_P1;PMS_P2;Temp;Humidity;BMP_temperature;BMP_pressure;BME280_temperature;BME280_humidity;BME280_pressure;Samples;Min_cycle;Max_cycle;Signal;HPM_P1;HPM_P2
2023/08/08 00:02:21;;;;;;;3.93;1.80;;;14.80;99.90;;;;;;4999712;28;20903;-59
2023/08/08 00:04:50;;;;;;;8.90;2.00;;;14.80;99.90;;;;;;4995421;28;20541;-59
2023/08/08 00:07:17;;;;;;;6.57;1.93;;;14.80;99.90;;;;;;4995306;28;20564;-62
2023/08/08 00:09:44;;;;;;;1.93;1.60;;;14.70;99.90;;;;;;4995075;28;20500;-60
2023/08/08 00:12:14;;;;;;;2.47;2.03;;;14.70;99.90;;;;;;4998137;28;20919;-59
2023/08/08 00:14:40;;;;;;;2.67;2.20;;;14.70;99.90;;;;;;4999125;28;20450;-60
2023/08/08 00:17:07;;;;;;;2.40;2.20;;;14.60;99.90;;;;;;5003728;28;20481;-57
2023/08/08 00:19:37;;;;;;;3.97;2.10;;;14.60;99.90;;;;;;5013735;28;20453;-58
2023/08/08 00:22:04;;;;;;;4.80;2.10;;;14.60;99.90;;;;;;5015280;28;20441;-56
2023/08/08 00:24:31;;;;;;;3.30;1.90;;;14.60;99.90;;;;;;5016617;28;20477;-57
2023/08/08 00:26:58;;;;;;;2.73;1.73;;;14.50;99.90;;;;;;5016800;28;20421;-57
2023/08/08 00:29:26;;;;;;;4.33;1.80;;;14.50;99.90;;;;;;5016590;28;20445;-56
2023/08/08 00:31:55;;;;;;;3.27;1.70;;;14.50;99.90;;;;;;5016787;28;20449;-59
2023/08/08 00:34:22;;;;;;;3.73;1.90;;;14.50;99.90;;;;;;5016823;28;20446;-54
2023/08/08 00:36:49;;;;;;;2.80;1.70;;;14.40;99.90;;;;;;5016638;28;20474;-57
2023/08/08 00:39:16;;;;;;;2.77;1.80;;;14.40;99.90;;;;;;4998360;28;20855;-58
2023/08/08 00:41:43;;;;;;;6.90;1.77;;;14.40;99.90;;;;;;4995078;28;20597;-59
2023/08/08 00:44:09;;;;;;;4.20;1.87;;;14.40;99.90;;;;;;5006338;28;20410;-55
2023/08/08 00:46:38;;;;;;;3.20;1.43;;;14.30;99.90;;;;;;5015071;28;20489;-58
2023/08/08 00:49:05;;;;;;;7.30;2.23;;;14.30;99.90;;;;;;5014698;28;20493;-59
2023/08/08 00:51:32;;;;;;;6.20;2.20;;;14.30;99.90;;;;;;5015506;28;20434;-58
2023/08/08 00:53:59;;;;;;;4.17;1.60;;;14.30;99.90;;;;;;5015988;28;20442;-59
2023/08/08 00:56:26;;;;;;;2.40;1.30;;;14.30;99.90;;;;;;5016585;28;20435;-57
2023/08/08 00:58:53;;;;;;;3.23;1.63;;;14.30;99.90;;;;;;5016584;28;20454;-59
2023/08/08 01:01:20;;;;;;;3.40;1.90;;;14.20;99.90;;;;;;5016205;28;20501;-60
2023/08/08 01:03:49;;;;;;;6.30;2.60;;;14.20;99.90;;;;;;5016220;28;20465;-56
2023/08/08 01:06:22;;;;;;;3.23;1.87;;;14.30;99.90;;;;;;4994782;28;20536;-59
2023/08/08 01:08:58;;;;;;;2.43;2.17;;;14.20;99.90;;;;;;4999317;28;20540;-60
2023/08/08 01:11:26;;;;;;;2.77;1.50;;;14.20;99.90;;;;;;4999648;28;20796;-58
2023/08/08 01:13:55;;;;;;;2.77;1.43;;;14.10;99.90;;;;;;5019763;28;20473;-55
2023/08/08 01:16:23;;;;;;;4.30;1.70;;;14.10;99.90;;;;;;5019627;28;20442;-60
2023/08/08 01:18:51;;;;;;;2.70;1.57;;;14.10;99.90;;;;;;5018765;28;20454;-58
2023/08/08 01:21:18;;;;;;;2.00;1.57;;;14.00;99.90;;;;;;4998861;28;20446;-59
2023/08/08 01:23:49;;;;;;;3.00;1.67;;;14.00;99.90;;;;;;5012148;28;20489;-52
2023/08/08 01:26:18;;;;;;;1.70;1.57;;;14.00;99.90;;;;;;5021951;28;20430;-50
2023/08/08 01:28:47;;;;;;;6.03;1.77;;;14.00;99.90;;;;;;5021854;28;20442;-48
2023/08/08 01:31:14;;;;;;;3.33;1.70;;;14.00;99.90;;;;;;5021797;28;20454;-47
2023/08/08 01:33:41;;;;;;;6.17;1.80;;;13.90;99.90;;;;;;4999575;28;20462;-59
2023/08/08 01:36:14;;;;;;;3.57;1.60;;;13.90;99.90;;;;;;4997667;28;20474;-59
2023/08/08 01:38:44;;;;;;;4.37;1.80;;;13.90;99.90;;;;;;5000496;28;20518;-59
2023/08/08 01:41:11;;;;;;;3.00;1.60;;;13.90;99.90;;;;;;5000412;28;20533;-60
2023/08/08 01:43:41;;;;;;;1.60;1.47;;;13.80;99.90;;;;;;5002340;28;20772;-59
2023/08/08 01:46:09;;;;;;;4.27;1.77;;;13.80;99.90;;;;;;4998122;28;20473;-60
2023/08/08 01:48:36;;;;;;;9.00;1.80;;;13.80;99.90;;;;;;5021164;28;20497;-52
2023/08/08 01:51:07;;;;;;;2.63;1.50;;;13.80;99.90;;;;;;5021577;28;20429;-52
2023/08/08 01:53:34;;;;;;;3.00;1.87;;;13.80;99.90;;;;;;5018361;28;20419;-59
2023/08/08 01:56:03;;;;;;;4.80;2.33;;;13.80;99.90;;;;;;5017227;28;20504;-59
2023/08/08 01:58:32;;;;;;;1.50;1.10;;;13.70;99.90;;;;;;5002217;28;20469;-57
2023/08/08 02:01:00;;;;;;;2.57;1.60;;;13.70;99.90;;;;;;5021165;28;20445;-49
2023/08/08 02:03:28;;;;;;;3.17;1.90;;;13.70;99.90;;;;;;5021220;28;20434;-48
2023/08/08 02:05:55;;;;;;;4.67;1.47;;;13.70;99.90;;;;;;5021209;28;20445;-45
2023/08/08 02:08:22;;;;;;;1.87;1.33;;;13.70;99.90;;;;;;5013295;28;20493;-59
2023/08/08 02:10:48;;;;;;;4.23;1.47;;;13.70;99.90;;;;;;4998057;28;20980;-60
2023/08/08 02:13:15;;;;;;;3.53;1.40;;;13.80;99.90;;;;;;5000261;28;20477;-60
2023/08/08 02:15:42;;;;;;;2.93;1.60;;;13.90;99.90;;;;;;5001546;28;20921;-60
2023/08/08 02:18:11;;;;;;;2.40;1.37;;;13.80;99.90;;;;;;4997623;28;20513;-60
2023/08/08 02:20:38;;;;;;;2.93;1.27;;;13.90;99.90;;;;;;4995766;28;20528;-60
2023/08/08 02:23:05;;;;;;;8.10;1.40;;;13.90;99.90;;;;;;4997418;28;20494;-59
2023/08/08 02:25:32;;;;;;;2.53;1.70;;;13.90;99.90;;;;;;4999247;28;20859;-60
2023/08/08 02:27:59;;;;;;;3.90;1.20;;;13.80;99.90;;;;;;4996581;28;20466;-61
2023/08/08 02:30:28;;;;;;;2.80;1.60;;;13.80;99.90;;;;;;4996586;28;20942;-58
2023/08/08 02:32:55;;;;;;;2.90;1.73;;;13.80;99.90;;;;;;4996875;28;20494;-58
2023/08/08 02:35:23;;;;;;;1.70;1.13;;;13.80;99.90;;;;;;4999321;28;20970;-59
2023/08/08 02:37:50;;;;;;;4.87;1.80;;;13.80;99.90;;;;;;4999522;28;20540;-61
2023/08/08 02:40:17;;;;;;;5.23;1.80;;;13.80;99.90;;;;;;5000706;28;20474;-60
2023/08/08 02:42:44;;;;;;;2.10;1.43;;;13.70;99.90;;;;;;4996643;28;20474;-60
2023/08/08 02:45:11;;;;;;;4.20;1.60;;;13.70;99.90;;;;;;4996312;28;20494;-61
2023/08/08 02:47:38;;;;;;;3.90;1.80;;;13.70;99.90;;;;;;4996468;28;20911;-60
2023/08/08 02:50:05;;;;;;;1.70;1.30;;;13.70;99.90;;;;;;4996205;28;20505;-61
2023/08/08 02:52:34;;;;;;;4.57;1.77;;;13.70;99.90;;;;;;4996185;28;20462;-60
2023/08/08 02:55:02;;;;;;;2.83;1.43;;;13.70;99.90;;;;;;4996498;28;20529;-60
2023/08/08 02:57:31;;;;;;;5.50;2.30;;;13.70;99.90;;;;;;4995923;28;20485;-60
2023/08/08 02:59:58;;;;;;;3.70;1.80;;;13.70;99.90;;;;;;4996981;28;20458;-60
2023/08/08 03:02:24;;;;;;;2.90;1.70;;;13.70;99.90;;;;;;4996349;28;20876;-59
2023/08/08 03:04:51;;;;;;;2.47;1.30;;;13.70;99.90;;;;;;5001535;28;20446;-60
2023/08/08 03:07:18;;;;;;;9.43;2.00;;;13.70;99.90;;;;;;5000269;28;20442;-59
2023/08/08 03:09:46;;;;;;;1.93;1.17;;;13.60;99.90;;;;;;4996136;28;20819;-60
2023/08/08 03:12:13;;;;;;;3.87;1.50;;;13.70;99.90;;;;;;4996100;28;20488;-58
2023/08/08 03:14:40;;;;;;;3.30;2.10;;;13.60;99.90;;;;;;4995982;28;20490;-59
2023/08/08 03:17:07;;;;;;;2.37;1.53;;;13.60;99.90;;;;;;4996006;28;20446;-60
2023/08/08 03:19:34;;;;;;;1.40;1.03;;;13.60;99.90;;;;;;4996033;28;20591;-60
2023/08/08 03:22:01;;;;;;;2.57;1.50;;;13.60;99.90;;;;;;4995960;28;20456;-60
2023/08/08 03:24:27;;;;;;;2.30;1.40;;;13.60;99.90;;;;;;5012081;28;20461;-47
2023/08/08 03:26:58;;;;;;;2.80;2.00;;;13.60;99.90;;;;;;5019588;28;20465;-51
2023/08/08 03:29:27;;;;;;;2.83;1.70;;;13.60;99.90;;;;;;5019602;28;20469;-50
2023/08/08 03:31:54;;;;;;;3.90;1.90;;;13.60;99.90;;;;;;5016662;28;20426;-57
2023/08/08 03:34:20;;;;;;;2.93;1.53;;;13.60;99.90;;;;;;4997663;28;20526;-59
2023/08/08 03:36:47;;;;;;;3.67;2.30;;;13.60;99.90;;;;;;4997002;28;20529;-59
2023/08/08 03:39:14;;;;;;;2.70;1.33;;;13.60;99.90;;;;;;4997932;28;20466;-59
2023/08/08 03:41:41;;;;;;;2.27;1.60;;;13.60;99.90;;;;;;4998993;28;20500;-59
2023/08/08 03:44:09;;;;;;;1.93;1.57;;;13.60;99.90;;;;;;5004534;28;20445;-60
2023/08/08 03:46:36;;;;;;;3.40;1.50;;;13.60;99.90;;;;;;5004009;28;20533;-59
2023/08/08 03:49:03;;;;;;;3.90;2.00;;;13.50;99.90;;;;;;4995213;28;20836;-57
2023/08/08 03:51:30;;;;;;;2.83;1.80;;;13.50;99.90;;;;;;4995425;28;20492;-61
2023/08/08 03:53:57;;;;;;;2.90;1.80;;;13.60;99.90;;;;;;4995559;28;20482;-59
2023/08/08 03:56:24;;;;;;;2.07;1.77;;;13.50;99.90;;;;;;4995394;28;20533;-59
2023/08/08 03:58:51;;;;;;;2.60;1.77;;;13.50;99.90;;;;;;5004773;28;20518;-58
2023/08/08 04:01:19;;;;;;;2.23;1.70;;;13.60;99.90;;;;;;5009180;28;20455;-58
2023/08/08 04:03:46;;;;;;;3.63;1.90;;;13.60;99.90;;;;;;5008617;28;20505;-58
2023/08/08 04:06:12;;;;;;;4.83;1.80;;;13.60;99.90;;;;;;5008894;28;20460;-57
2023/08/08 04:08:39;;;;;;;4.67;1.70;;;13.60;99.90;;;;;;5001377;28;20577;-60
2023/08/08 04:11:06;;;;;;;1.90;1.70;;;13.60;99.90;;;;;;4995327;28;20445;-60
2023/08/08 04:13:33;;;;;;;4.40;1.63;;;13.70;99.90;;;;;;4995345;28;20446;-60
2023/08/08 04:16:01;;;;;;;4.67;2.10;;;13.70;99.90;;;;;;4995162;28;20474;-59
2023/08/08 04:18:29;;;;;;;1.90;1.53;;;13.80;99.90;;;;;;4995405;28;20438;-56
2023/08/08 04:20:56;;;;;;;10.50;1.80;;;13.80;99.90;;;;;;4997180;28;20554;-59
2023/08/08 04:23:25;;;;;;;1.77;1.30;;;13.80;99.90;;;;;;4998615;28;20480;-61
2023/08/08 04:25:52;;;;;;;3.50;1.97;;;13.80;99.90;;;;;;4996893;28;20450;-59
2023/08/08 04:28:19;;;;;;;3.73;2.30;;;13.90;99.90;;;;;;4995141;28;20482;-59
2023/08/08 04:30:46;;;;;;;3.07;1.83;;;13.90;99.90;;;;;;4995133;28;20446;-59
2023/08/08 04:33:13;;;;;;;2.50;2.00;;;13.90;99.90;;;;;;4995089;28;20528;-60
2023/08/08 04:35:41;;;;;;;3.50;1.90;;;14.00;99.90;;;;;;4995365;28;20927;-58
2023/08/08 04:38:08;;;;;;;2.70;1.90;;;14.00;99.90;;;;;;4998843;28;20457;-51
2023/08/08 04:40:35;;;;;;;4.03;1.60;;;14.10;99.90;;;;;;5018756;28;20434;-46
2023/08/08 04:43:03;;;;;;;3.43;1.93;;;14.00;99.90;;;;;;5020365;28;20410;-47
2023/08/08 04:45:30;;;;;;;1.13;1.00;;;14.00;99.90;;;;;;5022365;28;20417;-52
2023/08/08 04:47:59;;;;;;;3.37;2.30;;;14.00;99.90;;;;;;5022663;28;20444;-50
2023/08/08 04:50:28;;;;;;;5.20;2.13;;;14.00;99.90;;;;;;5022476;28;20532;-49
2023/08/08 04:52:57;;;;;;;4.60;2.20;;;14.00;99.90;;;;;;5022264;28;20489;-53
2023/08/08 04:55:23;;;;;;;3.37;1.80;;;14.10;99.90;;;;;;5002377;28;20470;-60
2023/08/08 04:57:50;;;;;;;2.40;1.70;;;14.10;99.90;;;;;;4998684;28;20544;-59
2023/08/08 05:00:18;;;;;;;4.60;2.30;;;14.10;99.90;;;;;;4998442;28;20473;-61
2023/08/08 05:02:44;;;;;;;5.40;1.50;;;14.10;99.90;;;;;;4998530;28;20450;-60
2023/08/08 05:05:11;;;;;;;2.23;1.60;;;14.10;99.90;;;;;;4998413;28;20469;-60
2023/08/08 05:07:38;;;;;;;1.90;1.57;;;14.10;99.90;;;;;;4998177;28;20536;-59
2023/08/08 05:10:07;;;;;;;3.40;1.70;;;14.10;99.90;;;;;;4998606;28;20489;-59
2023/08/08 05:12:34;;;;;;;6.90;2.03;;;14.10;99.90;;;;;;4998441;28;20517;-61
2023/08/08 05:15:01;;;;;;;2.63;1.57;;;14.20;99.90;;;;;;5017127;28;20457;-53
2023/08/08 05:17:28;;;;;;;3.40;1.50;;;14.30;99.90;;;;;;5021934;28;20438;-52
2023/08/08 05:19:57;;;;;;;3.97;1.80;;;14.30;99.90;;;;;;5022039;28;20431;-50
2023/08/08 05:22:24;;;;;;;3.20;1.70;;;14.40;99.90;;;;;;5021978;28;20446;-52
2023/08/08 05:24:50;;;;;;;2.63;1.90;;;14.40;99.90;;;;;;5021923;28;20415;-48
2023/08/08 05:27:24;;;;;;;2.40;2.20;;;14.40;99.90;;;;;;5021919;28;20406;-48
2023/08/08 05:29:51;;;;;;;5.53;1.57;;;14.40;99.90;;;;;;5001233;28;20536;-59
2023/08/08 05:32:18;;;;;;;8.10;2.30;;;14.40;99.90;;;;;;4997918;28;20530;-58
2023/08/08 05:34:44;;;;;;;5.40;2.73;;;14.40;99.90;;;;;;4997876;28;20475;-59
2023/08/08 05:37:11;;;;;;;2.47;1.90;;;14.50;99.90;;;;;;5017181;28;20422;-51
2023/08/08 05:39:38;;;;;;;5.60;1.90;;;14.50;99.90;;;;;;5021536;28;20422;-47
2023/08/08 05:42:06;;;;;;;3.10;1.57;;;14.60;99.90;;;;;;5021574;28;20407;-52
2023/08/08 05:44:35;;;;;;;2.40;1.80;;;14.70;99.90;;;;;;5021561;28;20418;-52
2023/08/08 05:47:02;;;;;;;6.17;2.33;;;14.80;99.90;;;;;;5021527;28;20434;-47
2023/08/08 05:49:32;;;;;;;1.93;1.73;;;15.00;99.90;;;;;;5021504;28;20465;-51
2023/08/08 05:51:58;;;;;;;2.37;1.77;;;15.10;99.90;;;;;;5021386;28;20484;-49
2023/08/08 05:54:25;;;;;;;3.67;1.73;;;15.20;99.90;;;;;;5021378;28;20421;-47
2023/08/08 05:56:52;;;;;;;3.30;1.80;;;15.30;99.90;;;;;;5021366;28;20466;-50
2023/08/08 05:59:19;;;;;;;2.17;1.77;;;15.30;99.90;;;;;;5020025;28;20481;-49
2023/08/08 06:01:48;;;;;;;2.03;1.47;;;15.20;99.90;;;;;;5004191;28;20521;-59
2023/08/08 06:04:14;;;;;;;5.50;2.20;;;15.20;99.90;;;;;;4996430;28;20473;-59
2023/08/08 06:06:41;;;;;;;2.37;1.80;;;15.20;99.90;;;;;;4996386;28;20442;-56
2023/08/08 06:09:08;;;;;;;6.53;2.10;;;15.20;99.90;;;;;;4996072;28;20573;-60
2023/08/08 06:11:35;;;;;;;2.20;2.00;;;15.30;99.90;;;;;;4996428;28;20530;-60
2023/08/08 06:14:02;;;;;;;1.70;1.53;;;15.40;99.90;;;;;;4998074;28;20498;-60
2023/08/08 06:16:29;;;;;;;3.57;1.80;;;15.60;99.90;;;;;;4995851;28;20532;-59
2023/08/08 06:18:57;;;;;;;3.33;2.20;;;15.60;99.90;;;;;;4996195;28;20438;-59
2023/08/08 06:21:24;;;;;;;1.70;1.53;;;15.50;99.90;;;;;;4996028;28;20474;-60
2023/08/08 06:23:54;;;;;;;2.83;1.87;;;15.50;99.90;;;;;;4996204;28;20508;-58
2023/08/08 06:26:21;;;;;;;3.80;1.47;;;15.50;99.90;;;;;;4995741;28;20473;-60
2023/08/08 06:28:48;;;;;;;9.73;2.40;;;15.50;99.90;;;;;;4995907;28;20452;-59
2023/08/08 06:31:15;;;;;;;3.37;2.50;;;15.60;99.90;;;;;;4995686;28;20438;-60
2023/08/08 06:33:42;;;;;;;3.47;2.17;;;15.70;99.90;;;;;;4995918;28;20442;-59
2023/08/08 06:36:10;;;;;;;4.00;1.97;;;15.80;99.90;;;;;;4995422;28;20446;-58
2023/08/08 06:38:37;;;;;;;4.10;2.30;;;15.90;99.90;;;;;;4995475;28;20859;-58
2023/08/08 06:41:04;;;;;;;3.23;2.30;;;15.90;99.90;;;;;;4995716;28;20446;-57
2023/08/08 06:43:31;;;;;;;4.60;2.10;;;15.90;99.90;;;;;;4995727;28;20532;-58
2023/08/08 06:45:58;;;;;;;2.60;1.70;;;15.90;99.90;;;;;;4996316;28;20542;-60
2023/08/08 06:48:26;;;;;;;2.77;2.03;;;15.90;99.90;;;;;;4997849;28;20828;-60
2023/08/08 06:50:52;;;;;;;2.87;2.00;;;16.00;99.90;;;;;;5011099;28;20497;-57
2023/08/08 06:53:21;;;;;;;4.30;1.73;;;16.10;99.90;;;;;;5012556;28;20442;-54
2023/08/08 06:55:48;;;;;;;3.10;1.77;;;16.10;99.90;;;;;;5013209;28;20476;-57
2023/08/08 06:58:17;;;;;;;2.80;1.90;;;16.10;99.90;;;;;;4973977;28;1130118;-59
2023/08/08 07:00:46;;;;;;;3.20;1.50;;;16.10;99.90;;;;;;5014060;28;20203;-60
2023/08/08 07:03:13;;;;;;;2.60;1.80;;;16.10;99.90;;;;;;5013528;28;20469;-56
2023/08/08 07:05:39;;;;;;;4.90;2.20;;;16.20;99.90;;;;;;5012466;28;20517;-54
2023/08/08 07:08:08;;;;;;;3.33;2.40;;;16.20;99.90;;;;;;5013595;28;20430;-54
2023/08/08 07:10:36;;;;;;;2.80;1.70;;;16.30;99.90;;;;;;5005755;28;20466;-61
2023/08/08 07:13:03;;;;;;;7.00;2.10;;;16.30;99.90;;;;;;4996075;28;20453;-58
2023/08/08 07:15:31;;;;;;;3.40;2.00;;;16.30;99.90;;;;;;4997613;28;20545;-59
2023/08/08 07:17:57;;;;;;;2.70;1.97;;;15.20;99.90;;;;;;4999817;28;20508;-57
2023/08/08 07:20:24;;;;;;;4.90;2.00;;;16.50;99.90;;;;;;5000058;28;20498;-59
2023/08/08 07:22:51;;;;;;;4.20;2.23;;;16.60;99.90;;;;;;5004033;28;20441;-60
2023/08/08 07:25:18;;;;;;;3.43;2.23;;;16.60;99.90;;;;;;5004544;28;20456;-59
2023/08/08 07:27:48;;;;;;;1.87;1.63;;;16.70;99.90;;;;;;5013767;28;20466;-60
2023/08/08 07:30:15;;;;;;;3.50;1.90;;;16.80;99.90;;;;;;5013450;28;20560;-60
2023/08/08 07:32:42;;;;;;;3.60;1.70;;;17.00;99.90;;;;;;5013195;28;20594;-59
2023/08/08 07:35:10;;;;;;;5.83;2.40;;;17.00;99.90;;;;;;5013752;28;20445;-59
2023/08/08 07:37:38;;;;;;;2.27;1.87;;;17.00;99.90;;;;;;5012861;28;20450;-57
2023/08/08 07:40:15;;;;;;;2.67;1.53;;;17.10;99.90;;;;;;5012757;28;20450;-57
2023/08/08 07:42:42;;;;;;;3.53;2.40;;;17.10;99.90;;;;;;5012018;28;20432;-59
2023/08/08 07:45:10;;;;;;;5.27;2.93;;;17.30;99.90;;;;;;5012399;28;20474;-56
2023/08/08 07:47:38;;;;;;;4.70;2.97;;;17.30;99.90;;;;;;5012146;28;20446;-60
2023/08/08 07:50:08;;;;;;;2.57;1.90;;;17.40;99.90;;;;;;5011971;28;20521;-59
2023/08/08 07:52:35;;;;;;;2.87;1.60;;;17.40;99.90;;;;;;5012006;28;20438;-60
2023/08/08 07:55:01;;;;;;;2.80;2.03;;;17.40;99.90;;;;;;5011509;28;20453;-60
2023/08/08 07:57:30;;;;;;;3.30;1.80;;;17.40;99.90;;;;;;4996465;28;20473;-59
2023/08/08 07:59:57;;;;;;;2.73;2.20;;;17.30;99.90;;;;;;4995199;28;20429;-58
2023/08/08 08:02:25;;;;;;;3.87;2.40;;;17.40;99.90;;;;;;4995395;28;20520;-60
2023/08/08 08:04:52;;;;;;;4.17;2.40;;;17.50;99.90;;;;;;4995379;28;20438;-58
2023/08/08 08:07:19;;;;;;;3.43;2.10;;;17.40;99.90;;;;;;4995271;28;20524;-62
2023/08/08 08:09:45;;;;;;;4.90;2.87;;;17.30;99.90;;;;;;4995042;28;20513;-59
2023/08/08 08:12:13;;;;;;;3.73;2.57;;;17.40;99.90;;;;;;4995233;28;20498;-59
2023/08/08 08:14:40;;;;;;;4.90;2.13;;;17.50;99.90;;;;;;4995058;28;20438;-58
2023/08/08 08:17:08;;;;;;;2.30;1.50;;;17.80;99.90;;;;;;4994997;28;20442;-62
2023/08/08 08:19:36;;;;;;;3.67;1.77;;;18.00;99.90;;;;;;4999402;28;20431;-59
2023/08/08 08:22:04;;;;;;;5.00;2.00;;;18.10;99.90;;;;;;4999027;28;20943;-58
2023/08/08 08:24:31;;;;;;;3.87;1.90;;;18.30;99.90;;;;;;5002074;28;20477;-60
2023/08/08 08:26:58;;;;;;;2.27;2.07;;;18.50;99.90;;;;;;5002391;28;20489;-61
2023/08/08 08:29:24;;;;;;;6.03;2.30;;;18.90;99.90;;;;;;5003399;28;20477;-60
2023/08/08 08:31:51;;;;;;;3.20;2.40;;;19.50;99.90;;;;;;5003297;28;20532;-59
2023/08/08 08:34:20;;;;;;;6.50;2.20;;;19.90;99.90;;;;;;5003577;28;20505;-60
2023/08/08 08:36:48;;;;;;;2.70;1.93;;;20.40;99.90;;;;;;5004541;28;20453;-60
2023/08/08 08:39:15;;;;;;;2.27;1.60;;;20.70;99.90;;;;;;5012369;28;20448;-59
2023/08/08 08:41:42;;;;;;;3.77;2.33;;;20.80;99.90;;;;;;5011527;28;20441;-59
2023/08/08 08:44:09;;;;;;;2.30;1.70;;;20.50;99.90;;;;;;5010817;28;20480;-59
2023/08/08 08:46:37;;;;;;;8.53;2.10;;;20.00;99.90;;;;;;5000201;28;20962;-61
2023/08/08 08:49:08;;;;;;;9.43;2.57;;;19.60;99.90;;;;;;5004548;28;20473;-59
2023/08/08 08:51:35;;;;;;;4.23;2.00;;;19.40;99.90;;;;;;4999830;28;20489;-57
2023/08/08 08:54:04;;;;;;;2.30;2.00;;;19.20;99.90;;;;;;5000424;28;20469;-59
2023/08/08 08:56:32;;;;;;;3.03;2.17;;;19.00;99.90;;;;;;5002546;28;20494;-55
2023/08/08 08:59:00;;;;;;;3.00;1.93;;;19.20;99.90;;;;;;5003309;28;20454;-59
2023/08/08 09:01:28;;;;;;;2.50;2.03;;;19.40;99.90;;;;;;5005960;28;20476;-58
2023/08/08 09:03:55;;;;;;;2.43;2.00;;;19.60;99.90;;;;;;5002331;28;20958;-60
2023/08/08 09:06:33;;;;;;;3.60;2.37;;;19.70;99.90;;;;;;5001985;28;20504;-60
2023/08/08 09:09:00;;;;;;;4.30;2.47;;;19.80;99.90;;;;;;4999916;28;20469;-57
2023/08/08 09:11:28;;;;;;;5.93;2.10;;;20.20;99.90;;;;;;4998041;28;20488;-58
2023/08/08 09:13:55;;;;;;;2.80;2.10;;;20.40;99.90;;;;;;4998095;28;20513;-60
2023/08/08 09:16:23;;;;;;;2.93;1.90;;;19.90;99.90;;;;;;4998582;28;20450;-61
2023/08/08 09:18:51;;;;;;;3.00;1.60;;;19.70;99.90;;;;;;5003186;28;20493;-56
2023/08/08 09:21:19;;;;;;;6.03;1.60;;;19.90;99.90;;;;;;5009668;28;20457;-58
2023/08/08 09:23:46;;;;;;;3.03;1.40;;;20.20;99.90;;;;;;5010200;28;20492;-60
2023/08/08 09:26:16;;;;;;;3.60;3.30;;;20.70;99.90;;;;;;5009105;28;20449;-60
2023/08/08 09:28:44;;;;;;;2.40;1.80;;;21.30;99.90;;;;;;5007773;28;20473;-59
2023/08/08 09:31:13;;;;;;;2.10;1.90;;;22.10;99.90;;;;;;4998199;28;20520;-60
2023/08/08 09:33:40;;;;;;;6.07;3.23;;;22.00;99.90;;;;;;4997739;28;20589;-59
2023/08/08 09:36:08;;;;;;;1.97;1.60;;;22.10;99.90;;;;;;4997573;28;20785;-59
2023/08/08 09:38:35;;;;;;;5.10;2.07;;;22.20;99.90;;;;;;4997599;28;20458;-57
2023/08/08 09:41:02;;;;;;;3.63;1.97;;;22.50;99.90;;;;;;4997774;28;20485;-59
2023/08/08 09:43:30;;;;;;;2.33;1.70;;;23.00;99.90;;;;;;4998013;28;20911;-56
2023/08/08 09:45:58;;;;;;;2.40;2.17;;;22.30;99.90;;;;;;5003400;28;20457;-58
2023/08/08 09:48:31;;;;;;;2.43;1.60;;;23.80;99.90;;;;;;5007114;28;20508;-59
2023/08/08 09:51:00;;;;;;;4.17;2.20;;;24.20;99.90;;;;;;5015585;28;20468;-57
2023/08/08 09:53:29;;;;;;;3.00;2.00;;;24.30;99.90;;;;;;5014137;28;20541;-58
2023/08/08 09:55:57;;;;;;;7.17;2.07;;;23.50;99.90;;;;;;5014938;28;20453;-57
2023/08/08 09:58:24;;;;;;;3.20;1.90;;;22.50;99.90;;;;;;5015103;28;20492;-58
2023/08/08 10:00:52;;;;;;;3.10;2.10;;;22.10;99.90;;;;;;5015539;28;20450;-60
2023/08/08 10:03:20;;;;;;;11.17;5.77;;;21.70;99.90;;;;;;5015232;28;20458;-60
2023/08/08 10:05:47;;;;;;;5.73;2.20;;;21.30;99.90;;;;;;5015665;28;20438;-59
2023/08/08 10:08:17;;;;;;;2.57;1.73;;;20.50;99.90;;;;;;5016873;28;20464;-59
2023/08/08 10:10:51;;;;;;;4.00;3.47;;;19.90;99.90;;;;;;5016625;28;20501;-57
2023/08/08 10:13:21;;;;;;;3.57;1.90;;;19.50;99.90;;;;;;5016695;28;20461;-59
2023/08/08 10:15:51;;;;;;;3.80;2.00;;;19.30;99.90;;;;;;5016959;28;20507;-58
2023/08/08 10:18:22;;;;;;;5.10;3.77;;;19.10;99.90;;;;;;5017111;28;20422;-58
2023/08/08 10:20:49;;;;;;;6.93;2.20;;;19.00;99.90;;;;;;5016583;28;20485;-59
2023/08/08 10:23:20;;;;;;;3.60;2.20;;;19.10;99.90;;;;;;5016770;28;20486;-57
2023/08/08 10:25:48;;;;;;;4.40;1.87;;;19.20;99.90;;;;;;5016559;28;20439;-60
2023/08/08 10:28:18;;;;;;;7.00;3.60;;;19.20;99.90;;;;;;5016900;28;20414;-60
2023/08/08 10:30:46;;;;;;;4.07;1.80;;;19.10;99.90;;;;;;5016327;28;20458;-60
2023/08/08 10:33:22;;;;;;;3.00;1.57;;;19.40;99.90;;;;;;5015901;28;20498;-58
2023/08/08 10:35:56;;;;;;;5.60;2.73;;;20.30;99.90;;;;;;5016504;28;20442;-56
2023/08/08 10:38:23;;;;;;;2.20;1.80;;;21.10;99.90;;;;;;5016060;28;20497;-60
2023/08/08 10:40:58;;;;;;;3.00;2.13;;;21.70;99.90;;;;;;5015048;28;20457;-58
2023/08/08 10:43:29;;;;;;;3.83;1.80;;;21.70;99.90;;;;;;5015666;28;20484;-58
2023/08/08 10:46:00;;;;;;;5.70;2.80;;;22.00;99.90;;;;;;5015736;28;20450;-59
2023/08/08 10:48:28;;;;;;;2.47;2.20;;;21.90;99.90;;;;;;5015179;28;20469;-60
2023/08/08 10:50:58;;;;;;;2.80;1.87;;;21.40;99.90;;;;;;5015100;28;20470;-60
2023/08/08 10:53:26;;;;;;;2.63;1.80;;;21.30;99.90;;;;;;4996467;28;20537;-57
2023/08/08 10:56:00;;;;;;;2.37;1.90;;;21.00;99.90;;;;;;4996513;28;20434;-59
2023/08/08 10:58:37;;;;;;;2.17;1.87;;;20.60;99.90;;;;;;4996565;28;20450;-58
2023/08/08 11:01:07;;;;;;;3.97;2.13;;;20.30;99.90;;;;;;4997042;28;20426;-59
2023/08/08 11:03:37;;;;;;;3.63;2.50;;;20.10;99.90;;;;;;5015353;28;20430;-56
2023/08/08 11:06:04;;;;;;;6.20;2.17;;;20.00;99.90;;;;;;5015683;28;20466;-59
2023/08/08 11:08:32;;;;;;;2.27;2.00;;;19.90;99.90;;;;;;5015465;28;20450;-58
2023/08/08 11:11:00;;;;;;;1.90;1.63;;;19.90;99.90;;;;;;5015746;28;20488;-60
2023/08/08 11:13:27;;;;;;;3.77;2.73;;;18.50;99.90;;;;;;5015574;28;20450;-60
2023/08/08 11:15:54;;;;;;;5.47;2.87;;;20.70;99.90;;;;;;5015029;28;20859;-58
2023/08/08 11:18:22;;;;;;;2.10;1.90;;;21.00;99.90;;;;;;5015551;28;20486;-59
2023/08/08 11:20:51;;;;;;;6.40;2.80;;;21.30;99.90;;;;;;5014732;28;20475;-59
2023/08/08 11:23:18;;;;;;;5.00;3.00;;;21.60;99.90;;;;;;5014427;28;20495;-57
2023/08/08 11:25:46;;;;;;;3.93;2.10;;;21.80;99.90;;;;;;5014318;28;20442;-57
2023/08/08 11:28:14;;;;;;;3.80;2.10;;;21.60;99.90;;;;;;5014035;28;20496;-58
2023/08/08 11:30:44;;;;;;;3.23;1.90;;;21.20;99.90;;;;;;5014484;28;20500;-60
2023/08/08 11:33:13;;;;;;;2.60;1.60;;;20.50;99.90;;;;;;5015575;28;20493;-61
2023/08/08 11:35:45;;;;;;;2.67;1.57;;;19.60;99.90;;;;;;5001418;28;20430;-60
2023/08/08 11:38:14;;;;;;;3.00;1.77;;;18.80;99.90;;;;;;4995615;28;20489;-60
2023/08/08 11:40:42;;;;;;;2.50;1.50;;;18.30;99.90;;;;;;4995798;28;20434;-58
2023/08/08 11:43:09;;;;;;;4.00;2.23;;;17.90;99.90;;;;;;4995662;28;20441;-60
2023/08/08 11:45:36;;;;;;;2.97;1.90;;;17.70;99.90;;;;;;4996300;28;20446;-59
2023/08/08 11:48:03;;;;;;;2.67;1.63;;;17.50;99.90;;;;;;4998744;28;20938;-60
2023/08/08 11:50:30;;;;;;;2.03;1.57;;;17.40;99.90;;;;;;5001696;28;20470;-61
2023/08/08 11:52:57;;;;;;;2.80;1.77;;;17.80;99.90;;;;;;4997577;28;20450;-60
2023/08/08 11:55:29;;;;;;;2.10;1.70;;;17.40;99.90;;;;;;4995156;28;20470;-60
2023/08/08 11:57:59;;;;;;;2.20;2.00;;;17.70;99.90;;;;;;4995215;28;20537;-60
2023/08/08 12:00:29;;;;;;;4.90;2.10;;;18.20;99.90;;;;;;4995180;28;20430;-60
2023/08/08 12:02:57;;;;;;;3.20;2.07;;;18.50;99.90;;;;;;4995914;28;20468;-59
2023/08/08 12:05:24;;;;;;;2.73;1.90;;;18.70;99.90;;;;;;4997226;28;20538;-62
2023/08/08 12:07:52;;;;;;;2.83;2.27;;;18.90;99.90;;;;;;5006075;28;20577;-61
2023/08/08 12:10:21;;;;;;;3.33;2.43;;;19.10;99.90;;;;;;4997036;28;20541;-60
2023/08/08 12:12:55;;;;;;;5.13;2.10;;;19.40;99.90;;;;;;4995388;28;20469;-59
2023/08/08 12:15:22;;;;;;;2.40;2.20;;;19.60;99.90;;;;;;4995031;28;20489;-60
2023/08/08 12:17:50;;;;;;;2.53;2.20;;;19.70;99.90;;;;;;4995292;28;20469;-59
2023/08/08 12:20:17;;;;;;;2.30;2.10;;;19.80;99.90;;;;;;4995262;28;20474;-60
2023/08/08 12:22:45;;;;;;;2.50;2.17;;;20.00;99.90;;;;;;4995081;28;20481;-60
2023/08/08 12:25:12;;;;;;;3.23;2.37;;;20.10;99.90;;;;;;4995257;28;20450;-59
2023/08/08 12:27:39;;;;;;;3.60;2.03;;;20.10;99.90;;;;;;4995157;28;20449;-61
2023/08/08 12:30:09;;;;;;;5.63;2.43;;;20.20;99.90;;;;;;4998014;28;20474;-60
2023/08/08 12:32:36;;;;;;;2.70;2.20;;;20.40;99.90;;;;;;5017168;28;20561;-53
2023/08/08 12:35:03;;;;;;;2.77;2.50;;;20.40;99.90;;;;;;5014994;28;20466;-59
2023/08/08 12:37:30;;;;;;;6.63;2.53;;;20.40;99.90;;;;;;4997549;28;20489;-61
2023/08/08 12:39:57;;;;;;;3.67;2.50;;;20.20;99.90;;;;;;4999703;28;20470;-59
2023/08/08 12:42:24;;;;;;;3.07;2.60;;;19.80;99.90;;;;;;5006078;28;20422;-59
2023/08/08 12:44:51;;;;;;;4.37;2.47;;;19.20;99.90;;;;;;5009134;28;20446;-60
2023/08/08 12:47:20;;;;;;;6.27;2.37;;;18.90;99.90;;;;;;4995137;28;20457;-59
2023/08/08 12:49:47;;;;;;;3.03;2.47;;;18.70;99.90;;;;;;5014005;28;20430;-49